Time;durP1;ratioP1;P1;durP2;ratioP2;P2;SDS_P1;SDS_P2;PMS_P1;PMS_P2;Temp;Humidity;BMP_temperature;BMP_pressure;BME280_temperature;BME280_humidity;BME280_pressure;Samples;Min_cycle;Max_cycle;Signal;HPM_P1;HPM_P2
2023/04/16 00:01:58;;;;;;;;;;;8.00;99.90;;;;;;5052200;28;20026;-87
2023/04/16 00:04:24;;;;;;;2.53;1.80;;;8.00;99.90;;;;;;5052734;28;19904;-88
2023/04/16 00:06:49;;;;;;;;;;;8.10;99.90;;;;;;5053027;28;20035;-88
2023/04/16 00:09:15;;;;;;;4.53;1.88;;;8.10;99.90;;;;;;5052910;28;19912;-88
2023/04/16 00:11:40;;;;;;;;;;;8.10;99.90;;;;;;5052145;28;20497;-87
2023/04/16 00:14:06;;;;;;;2.38;1.60;;;8.00;99.90;;;;;;5051022;28;20148;-87
2023/04/16 00:16:32;;;;;;;;;;;8.00;99.90;;;;;;5052964;28;20025;-87
2023/04/16 00:18:57;;;;;;;5.50;1.60;;;8.00;99.90;;;;;;5052177;28;20401;-87
2023/04/16 00:21:23;;;;;;;;;;;8.00;99.90;;;;;;5052706;28;20817;-87
2023/04/16 00:23:48;;;;;;;2.20;1.45;;;8.00;99.90;;;;;;5052208;28;20001;-87
2023/04/16 00:26:14;;;;;;;;;;;8.00;99.90;;;;;;5052787;28;20106;-87
2023/04/16 00:28:40;;;;;;;3.13;1.33;;;7.90;99.90;;;;;;5052319;28;20395;-87
2023/04/16 00:31:06;;;;;;;;;;;7.90;99.90;;;;;;5052715;28;20037;-87
2023/04/16 00:33:31;;;;;;;2.42;1.38;;;7.80;99.90;;;;;;5052464;28;19912;-87
2023/04/16 00:35:57;;;;;;;;;;;7.80;99.90;;;;;;5052527;28;20029;-86
2023/04/16 00:38:23;;;;;;;3.17;1.63;;;7.80;99.90;;;;;;5052101;28;20452;-87
2023/04/16 00:40:49;;;;;;;;;;;7.90;99.90;;;;;;5052278;28;20063;-87
2023/04/16 00:43:25;;;;;;;2.75;1.33;;;8.00;99.90;;;;;;5052035;28;19905;-87
2023/04/16 00:45:51;;;;;;;;;;;8.20;99.90;;;;;;5052228;28;20497;-87
2023/04/16 00:48:17;;;;;;;5.40;1.63;;;8.20;99.90;;;;;;5052810;28;19908;-87
2023/04/16 00:50:43;;;;;;;2.38;1.38;;;8.20;99.90;;;;;;5051230;28;20110;-87
2023/04/16 00:53:09;;;;;;;;;;;8.20;99.90;;;;;;5053349;28;20029;-87
2023/04/16 00:55:35;;;;;;;1.88;1.10;;;8.30;99.90;;;;;;5051449;28;19916;-87
2023/04/16 00:58:02;;;;;;;2.15;1.33;;;8.30;99.90;;;;;;5051713;28;20029;-85
2023/04/16 01:00:28;;;;;;;2.75;1.50;;;8.30;99.90;;;;;;5051227;28;20127;-84
2023/04/16 01:02:53;;;;;;;;;;;8.40;99.90;;;;;;5050749;28;20475;-84
2023/04/16 01:05:19;;;;;;;3.72;1.58;;;8.40;99.90;;;;;;5050647;28;19963;-84
2023/04/16 01:07:45;;;;;;;1.88;1.02;;;8.40;99.90;;;;;;5049710;28;20028;-84
2023/04/16 01:10:11;;;;;;;;;;;8.40;99.90;;;;;;5048817;28;20037;-84
2023/04/16 01:12:36;;;;;;;2.90;1.35;;;8.40;99.90;;;;;;5050147;28;20353;-85
2023/04/16 01:15:02;;;;;;;;;;;8.40;99.90;;;;;;5052479;28;20142;-85
2023/04/16 01:17:28;;;;;;;3.03;1.00;;;8.30;99.90;;;;;;5050728;28;19947;-83
2023/04/16 01:19:58;;;;;;;;;;;8.20;99.90;;;;;;5052146;28;20059;-84
2023/04/16 01:22:23;;;;;;;1.42;0.88;;;8.20;99.90;;;;;;5050576;28;19905;-85
2023/04/16 01:24:49;;;;;;;;;;;8.10;99.90;;;;;;5054643;28;20021;-84
2023/04/16 01:27:15;;;;;;;10.77;5.43;;;8.00;99.90;;;;;;5054860;28;19944;-84
2023/04/16 01:29:40;;;;;;;;;;;7.90;99.90;;;;;;5055333;28;20124;-85
2023/04/16 01:32:06;;;;;;;7.18;3.17;;;7.70;99.90;;;;;;5054470;28;19923;-84
2023/04/16 01:34:31;;;;;;;;;;;7.70;99.90;;;;;;5054525;28;20031;-84
2023/04/16 01:36:57;;;;;;;42.28;18.95;;;7.60;99.90;;;;;;5055610;28;19908;-84
2023/04/16 01:39:23;;;;;;;;;;;7.60;99.90;;;;;;5054984;28;20083;-84
2023/04/16 01:41:48;;;;;;;18.45;8.75;;;7.50;99.90;;;;;;5054421;28;19905;-84
2023/04/16 01:44:14;;;;;;;;;;;7.40;99.90;;;;;;5055447;28;20481;-84
2023/04/16 01:46:40;;;;;;;50.50;22.23;;;7.40;99.90;;;;;;5055092;28;19905;-82
2023/04/16 01:49:06;;;;;;;;;;;7.30;99.90;;;;;;5053705;28;20398;-86
2023/04/16 01:51:32;;;;;;;100.82;38.42;;;7.20;99.90;;;;;;5054174;28;20038;-86
2023/04/16 01:53:57;;;;;;;;;;;7.20;99.90;;;;;;5055368;28;20043;-85
2023/04/16 01:56:23;;;;;;;77.10;28.05;;;7.10;99.90;;;;;;5055118;28;20400;-87
2023/04/16 01:58:49;;;;;;;;;;;7.00;99.90;;;;;;5056052;28;20021;-86
2023/04/16 02:01:15;;;;;;;48.92;19.00;;;6.90;99.90;;;;;;5054084;28;19909;-87
2023/04/16 02:03:40;;;;;;;;;;;6.80;99.90;;;;;;5055121;28;20124;-86
2023/04/16 02:06:06;;;;;;;11.82;5.13;;;6.80;99.90;;;;;;5054710;28;19905;-86
2023/04/16 02:08:32;;;;;;;;;;;6.70;99.90;;;;;;5054629;28;20028;-84
2023/04/16 02:10:58;;;;;;;4.38;2.30;;;6.70;99.90;;;;;;5053662;28;19923;-85
2023/04/16 02:13:24;;;;;;;5.50;2.90;;;6.70;99.90;;;;;;5055219;28;20043;-85
2023/04/16 02:15:51;;;;;;;4.88;3.30;;;6.60;99.90;;;;;;5054283;28;20033;-85
2023/04/16 02:18:17;;;;;;;5.65;2.60;;;6.60;99.90;;;;;;5054636;28;20025;-87
2023/04/16 02:20:44;;;;;;;;;;;6.60;99.90;;;;;;5054585;28;20120;-85
2023/04/16 02:23:10;;;;;;;9.77;4.88;;;6.60;99.90;;;;;;5054322;28;19919;-86
2023/04/16 02:25:40;;;;;;;7.47;3.83;;;6.60;99.90;;;;;;5054097;28;20032;-86
2023/04/16 02:28:08;;;;;;;5.80;2.80;;;6.70;99.90;;;;;;5053851;28;20029;-85
2023/04/16 02:30:37;;;;;;;5.45;3.53;;;6.70;99.90;;;;;;5054398;28;20203;-89
2023/04/16 02:33:06;;;;;;;5.85;2.72;;;6.70;99.90;;;;;;5054458;28;20485;-88
2023/04/16 02:35:32;;;;;;;9.02;3.55;;;6.70;99.90;;;;;;5054993;28;20104;-89
2023/04/16 02:37:58;;;;;;;5.65;3.47;;;6.70;99.90;;;;;;5054765;28;20033;-87
2023/04/16 02:40:24;;;;;;;;;;;6.80;99.90;;;;;;5054444;28;20382;-87
2023/04/16 02:42:50;;;;;;;3.42;1.55;;;6.70;99.90;;;;;;5055711;28;20289;-87
2023/04/16 02:45:15;;;;;;;;;;;6.60;99.90;;;;;;5056675;28;20060;-87
2023/04/16 02:47:41;;;;;;;2.45;1.42;;;6.50;99.90;;;;;;5055045;28;19904;-88
2023/04/16 02:50:06;;;;;;;;;;;6.50;99.90;;;;;;5055158;28;20053;-87
2023/04/16 02:52:32;;;;;;;3.45;1.60;;;6.40;99.90;;;;;;5054075;28;20011;-87
2023/04/16 02:54:58;;;;;;;;;;;6.40;99.90;;;;;;5054431;28;20056;-86
2023/04/16 02:57:24;;;;;;;6.28;2.22;;;6.40;99.90;;;;;;5053550;28;20241;-85
2023/04/16 02:59:49;;;;;;;;;;;6.30;99.90;;;;;;5053562;28;20021;-83
2023/04/16 03:02:15;;;;;;;3.25;1.77;;;6.30;99.90;;;;;;5053686;28;20456;-85
2023/04/16 03:04:41;;;;;;;;;;;6.30;99.90;;;;;;5052957;28;20120;-85
2023/04/16 03:07:07;;;;;;;2.53;1.75;;;6.30;99.90;;;;;;5051859;28;19996;-85
2023/04/16 03:09:34;;;;;;;2.38;1.52;;;6.30;99.90;;;;;;5052742;28;20029;-85
2023/04/16 03:12:03;;;;;;;4.95;1.75;;;6.30;99.90;;;;;;5053973;28;20032;-85
2023/04/16 03:14:30;;;;;;;3.28;1.83;;;6.30;99.90;;;;;;5053290;28;20036;-83
2023/04/16 03:16:56;;;;;;;3.72;1.90;;;6.20;99.90;;;;;;5053983;28;20025;-83
2023/04/16 03:19:21;;;;;;;;;;;6.20;99.90;;;;;;5053235;28;20389;-84
2023/04/16 03:21:47;;;;;;;3.42;1.88;;;6.20;99.90;;;;;;5051680;28;19919;-84
2023/04/16 03:24:13;;;;;;;;;;;6.20;99.90;;;;;;5051480;28;20028;-85
2023/04/16 03:26:38;;;;;;;6.15;3.22;;;6.20;99.90;;;;;;5049898;28;19904;-84
2023/04/16 03:29:04;;;;;;;;;;;6.30;99.90;;;;;;5051692;28;20111;-84
2023/04/16 03:31:30;;;;;;;3.45;2.22;;;6.20;99.90;;;;;;5052484;28;19912;-83
2023/04/16 03:33:55;;;;;;;;;;;6.10;99.90;;;;;;5051833;28;20029;-84
2023/04/16 03:36:22;;;;;;;4.38;2.55;;;6.20;99.90;;;;;;5052073;28;19911;-84
2023/04/16 03:38:48;;;;;;;6.93;2.60;;;6.20;99.90;;;;;;5053736;28;20029;-85
2023/04/16 03:41:14;;;;;;;3.42;2.42;;;6.10;99.90;;;;;;5053104;28;20115;-86
2023/04/16 03:43:39;;;;;;;;;;;6.20;99.90;;;;;;5052759;28;20072;-86
2023/04/16 03:46:05;;;;;;;4.32;2.88;;;6.30;99.90;;;;;;5051088;28;20288;-86
2023/04/16 03:48:30;;;;;;;;;;;6.30;99.90;;;;;;5051752;28;20549;-87
2023/04/16 03:50:56;;;;;;;4.95;2.70;;;6.30;99.90;;;;;;5052313;28;19963;-86
2023/04/16 03:53:22;;;;;;;;;;;6.40;99.90;;;;;;5053179;28;20029;-86
2023/04/16 03:55:51;;;;;;;2.80;1.65;;;6.40;99.90;;;;;;5052094;28;19932;-85
2023/04/16 03:58:17;;;;;;;2.55;1.90;;;6.40;99.90;;;;;;5052446;28;20033;-86
2023/04/16 04:00:43;;;;;;;3.40;2.20;;;6.50;99.90;;;;;;5052414;28;20025;-86
2023/04/16 04:03:09;;;;;;;;;;;6.50;99.90;;;;;;5053149;28;20021;-86
2023/04/16 04:05:38;;;;;;;5.03;2.60;;;6.50;99.90;;;;;;5052582;28;19986;-87
2023/04/16 04:08:04;;;;;;;6.03;2.90;;;6.50;99.90;;;;;;5052254;28;20163;-85
2023/04/16 04:10:32;;;;;;;;;;;6.50;99.90;;;;;;5052776;28;20124;-85
2023/04/16 04:12:59;;;;;;;5.55;2.85;;;6.50;99.90;;;;;;5052081;28;19971;-86
2023/04/16 04:15:24;;;;;;;8.45;3.55;;;6.50;99.90;;;;;;5053522;28;20388;-86
2023/04/16 04:17:50;;;;;;;;;;;6.50;99.90;;;;;;5052736;28;20021;-85
2023/04/16 04:20:16;;;;;;;3.30;2.08;;;6.50;99.90;;;;;;5051981;28;19904;-86
2023/04/16 04:22:41;;;;;;;;;;;6.50;99.90;;;;;;5050965;28;20431;-85
2023/04/16 04:25:09;;;;;;;2.95;1.75;;;6.60;99.90;;;;;;5051811;28;19909;-86
2023/04/16 04:27:35;;;;;;;2.17;1.27;;;6.60;99.90;;;;;;5052432;28;20084;-87
2023/04/16 04:30:00;;;;;;;;;;;6.60;99.90;;;;;;5052333;28;20124;-85
2023/04/16 04:32:26;;;;;;;7.45;2.35;;;6.60;99.90;;;;;;5051825;28;19999;-87
2023/04/16 04:34:51;;;;;;;;;;;6.60;99.90;;;;;;5052394;28;20024;-84
2023/04/16 04:37:17;;;;;;;6.97;2.33;;;6.70;99.90;;;;;;5052148;28;19908;-86
2023/04/16 04:39:43;;;;;;;;;;;6.90;99.90;;;;;;5051927;28;20080;-86
2023/04/16 04:42:08;;;;;;;7.70;3.08;;;7.20;99.90;;;;;;5051411;28;19908;-87
2023/04/16 04:44:34;;;;;;;;;;;7.70;99.90;;;;;;5051852;28;20025;-85
2023/04/16 04:47:00;;;;;;;5.20;2.95;;;8.20;99.90;;;;;;5051820;28;19992;-87
2023/04/16 04:49:25;;;;;;;;;;;8.80;99.90;;;;;;5052367;28;20060;-86
2023/04/16 04:51:51;;;;;;;5.97;2.88;;;9.30;99.90;;;;;;5051729;28;19999;-85
2023/04/16 04:54:16;;;;;;;;;;;10.00;99.90;;;;;;5051969;28;20031;-87
2023/04/16 04:56:44;;;;;;;5.93;3.03;;;10.50;99.90;;;;;;5051820;28;19905;-84
2023/04/16 04:59:10;;;;;;;3.92;2.47;;;10.80;99.90;;;;;;5050242;28;20124;-87
2023/04/16 05:01:37;;;;;;;6.15;2.53;;;11.30;99.90;;;;;;5049858;28;20028;-88
2023/04/16 05:04:03;;;;;;;2.40;1.50;;;11.90;99.90;;;;;;5051975;28;20474;-87
2023/04/16 05:06:28;;;;;;;;;;;12.40;99.90;;;;;;5051759;28;20166;-87
2023/04/16 05:08:54;;;;;;;1.92;0.75;;;12.70;99.90;;;;;;5051352;28;20043;-87
2023/04/16 05:11:19;;;;;;;;;;;13.00;99.90;;;;;;5051263;28;20029;-86
2023/04/16 05:13:45;;;;;;;1.45;0.70;;;13.30;99.90;;;;;;5050253;28;19905;-87
2023/04/16 05:16:11;;;;;;;4.40;1.90;;;13.20;99.90;;;;;;5052026;28;20033;-87
2023/04/16 05:18:36;;;;;;;;;;;13.20;99.90;;;;;;5052466;28;20029;-89
2023/04/16 05:21:02;;;;;;;3.50;2.40;;;13.30;99.90;;;;;;5051574;28;19999;-88
2023/04/16 05:23:28;;;;;;;4.15;2.45;;;13.20;99.90;;;;;;5052708;28;20032;-88
2023/04/16 05:25:53;;;;;;;;;;;13.50;99.90;;;;;;5051864;28;20025;-89
2023/04/16 05:28:19;;;;;;;4.25;2.85;;;13.70;99.90;;;;;;5051427;28;19950;-89
2023/04/16 05:30:45;;;;;;;3.92;1.92;;;13.90;99.90;;;;;;5050057;28;20082;-87
2023/04/16 05:33:10;;;;;;;3.65;2.08;;;14.00;99.90;;;;;;5049867;28;20094;-88
2023/04/16 05:35:36;;;;;;;4.82;1.00;;;13.90;99.90;;;;;;5050970;28;20095;-88
2023/04/16 05:38:03;;;;;;;2.80;0.95;;;14.10;99.90;;;;;;5051158;28;20128;-88
2023/04/16 05:40:29;;;;;;;4.72;1.17;;;14.20;99.90;;;;;;5051027;28;20064;-88
2023/04/16 05:42:54;;;;;;;1.67;0.88;;;14.20;99.90;;;;;;5049095;28;20506;-89
2023/04/16 05:45:20;;;;;;;2.97;0.90;;;14.20;99.90;;;;;;5049591;28;20074;-89
2023/04/16 05:47:46;;;;;;;2.40;0.63;;;14.40;99.90;;;;;;5051373;28;20017;-88
2023/04/16 05:50:12;;;;;;;3.75;0.70;;;14.30;99.90;;;;;;5050594;28;20132;-86
2023/04/16 05:52:38;;;;;;;2.35;0.70;;;14.50;99.90;;;;;;5048863;28;20619;-85
2023/04/16 05:55:05;;;;;;;4.25;0.93;;;14.50;99.90;;;;;;5049573;28;20026;-86
2023/04/16 05:57:30;;;;;;;2.00;0.98;;;14.70;99.90;;;;;;5049471;28;20033;-85
2023/04/16 05:59:56;;;;;;;2.75;0.80;;;14.90;99.90;;;;;;5050688;28;20029;-86
2023/04/16 06:02:22;;;;;;;2.15;0.70;;;14.90;97.80;;;;;;5049731;28;20033;-85
2023/04/16 06:04:48;;;;;;;3.67;1.08;;;15.10;98.50;;;;;;5050328;28;20028;-84
2023/04/16 06:07:14;;;;;;;3.08;0.95;;;15.20;98.10;;;;;;5050502;28;20028;-87
2023/04/16 06:09:40;;;;;;;5.80;1.35;;;15.40;96.50;;;;;;5051189;28;20794;-84
2023/04/16 06:12:06;;;;;;;3.70;0.93;;;15.60;96.10;;;;;;5052921;28;20052;-82
2023/04/16 06:14:32;;;;;;;1.75;0.50;;;16.00;90.70;;;;;;5052625;28;20445;-85
2023/04/16 06:16:57;;;;;;;0.95;0.40;;;16.20;83.50;;;;;;5053786;28;20484;-85
2023/04/16 06:19:23;;;;;;;3.08;0.40;;;16.40;83.80;;;;;;5053980;28;20421;-86
2023/04/16 06:21:49;;;;;;;1.80;0.40;;;16.50;83.30;;;;;;5054355;28;20543;-86
2023/04/16 06:24:17;;;;;;;0.60;0.40;;;16.90;75.70;;;;;;5056405;28;20411;-87
2023/04/16 06:26:43;;;;;;;0.60;0.40;;;17.20;73.40;;;;;;5058181;28;20124;-86
2023/04/16 06:29:09;;;;;;;5.38;0.50;;;17.50;69.50;;;;;;5056618;28;20021;-85
2023/04/16 06:31:34;;;;;;;0.80;0.30;;;17.40;72.60;;;;;;5055908;28;20037;-86
2023/04/16 06:34:00;;;;;;;2.00;0.45;;;17.50;70.20;;;;;;5056355;28;20146;-85
2023/04/16 06:36:26;;;;;;;1.10;0.40;;;17.70;67.90;;;;;;5057478;28;20389;-86
2023/04/16 06:38:52;;;;;;;0.63;0.30;;;17.20;69.70;;;;;;5056003;28;20627;-86
2023/04/16 06:41:18;;;;;;;1.02;0.40;;;17.00;69.30;;;;;;5054647;28;20035;-86
2023/04/16 06:43:44;;;;;;;0.68;0.40;;;17.00;71.60;;;;;;5054480;28;20379;-85
2023/04/16 06:46:10;;;;;;;0.50;0.30;;;17.10;69.10;;;;;;5053675;28;20039;-86
2023/04/16 06:48:35;;;;;;;1.13;0.35;;;16.90;69.90;;;;;;5051178;28;20111;-86
2023/04/16 06:51:01;;;;;;;0.50;0.30;;;16.90;68.30;;;;;;5054391;28;20053;-88
2023/04/16 06:53:27;;;;;;;1.15;0.30;;;16.80;68.70;;;;;;5054042;28;20036;-88
2023/04/16 06:55:52;;;;;;;0.50;0.30;;;16.50;69.60;;;;;;5057073;28;20024;-85
2023/04/16 06:58:18;;;;;;;10.27;5.15;;;16.50;70.50;;;;;;5054714;28;20043;-86
2023/04/16 07:00:44;;;;;;;10.23;4.60;;;16.70;69.90;;;;;;5058359;28;20036;-85
2023/04/16 07:03:10;;;;;;;1.13;0.40;;;17.10;68.70;;;;;;5059250;28;20434;-86
2023/04/16 07:05:37;;;;;;;1.65;0.30;;;17.20;66.20;;;;;;5056070;28;20040;-87
2023/04/16 07:08:02;;;;;;;0.90;0.30;;;17.30;66.60;;;;;;5055626;28;20544;-84
2023/04/16 07:10:28;;;;;;;2.58;0.30;;;17.50;66.00;;;;;;5052673;28;20029;-86
2023/04/16 07:12:54;;;;;;;0.70;0.30;;;17.60;64.10;;;;;;5052051;28;20460;-86
2023/04/16 07:15:19;;;;;;;0.25;0.20;;;17.90;62.50;;;;;;5052302;28;20025;-89
2023/04/16 07:17:45;;;;;;;1.65;0.35;;;18.10;60.40;;;;;;5052374;28;20055;-85
2023/04/16 07:20:11;;;;;;;1.17;0.30;;;18.00;62.20;;;;;;5051862;28;20040;-87
2023/04/16 07:22:37;;;;;;;3.10;0.30;;;18.30;60.30;;;;;;5053609;28;20108;-87
2023/04/16 07:25:03;;;;;;;1.30;0.30;;;18.50;59.20;;;;;;5052325;28;20561;-85
2023/04/16 07:27:28;;;;;;;0.73;0.20;;;18.60;56.00;;;;;;5052619;28;20025;-85
2023/04/16 07:29:54;;;;;;;1.02;0.40;;;18.40;56.30;;;;;;5052505;28;20024;-83
2023/04/16 07:32:21;;;;;;;1.73;0.38;;;18.40;57.20;;;;;;5050362;28;20095;-86
2023/04/16 07:34:47;;;;;;;2.58;0.40;;;18.80;54.90;;;;;;5052366;28;20082;-86
2023/04/16 07:37:12;;;;;;;3.60;0.40;;;18.70;53.70;;;;;;5052342;28;20037;-87
2023/04/16 07:39:38;;;;;;;9.77;4.57;;;18.90;53.40;;;;;;5052785;28;20094;-87
2023/04/16 07:42:05;;;;;;;4.43;1.63;;;19.00;51.90;;;;;;5052500;28;20528;-86
2023/04/16 07:44:31;;;;;;;32.17;15.90;;;18.90;52.10;;;;;;5052141;28;20039;-86
2023/04/16 07:46:56;;;;;;;2.15;0.63;;;18.80;52.90;;;;;;5051967;28;20107;-82
2023/04/16 07:49:22;;;;;;;0.30;0.20;;;18.90;53.20;;;;;;5051907;28;20027;-83
2023/04/16 07:51:48;;;;;;;11.40;4.70;;;19.00;52.30;;;;;;5050727;28;20053;-86
2023/04/16 07:54:14;;;;;;;46.20;18.42;;;19.30;54.00;;;;;;5052600;28;20032;-84
2023/04/16 07:56:39;;;;;;;18.90;8.10;;;19.80;50.80;;;;;;5053985;28;20111;-86
2023/04/16 07:59:05;;;;;;;49.25;23.50;;;19.90;49.60;;;;;;5051096;28;20029;-83
2023/04/16 08:01:31;;;;;;;2.55;0.57;;;19.80;50.50;;;;;;5049853;28;20074;-85
2023/04/16 08:03:57;;;;;;;7.57;3.30;;;19.90;49.10;;;;;;5053668;28;20029;-85
2023/04/16 08:06:23;;;;;;;2.97;0.88;;;19.80;49.60;;;;;;5051815;28;20162;-86
2023/04/16 08:08:49;;;;;;;1.63;0.50;;;20.10;49.50;;;;;;5053412;28;20029;-84
2023/04/16 08:11:14;;;;;;;2.35;0.70;;;20.20;48.10;;;;;;5053094;28;20033;-86
2023/04/16 08:13:40;;;;;;;1.77;0.93;;;20.30;46.90;;;;;;5052539;28;20028;-85
2023/04/16 08:16:06;;;;;;;1.05;0.30;;;20.10;46.60;;;;;;5051829;28;20060;-85
2023/04/16 08:18:32;;;;;;;12.52;0.50;;;20.30;44.50;;;;;;5050698;28;20021;-86
2023/04/16 08:20:57;;;;;;;0.52;0.30;;;20.30;44.30;;;;;;5052593;28;20064;-84
2023/04/16 08:23:23;;;;;;;4.43;0.68;;;20.30;46.20;;;;;;5051374;28;20112;-86
2023/04/16 08:25:49;;;;;;;0.40;0.20;;;20.30;46.30;;;;;;5052048;28;20033;-85
2023/04/16 08:28:14;;;;;;;4.82;0.60;;;20.30;45.00;;;;;;5051689;28;20402;-86
2023/04/16 08:30:40;;;;;;;0.77;0.38;;;20.30;45.50;;;;;;5051927;28;20060;-85
2023/04/16 08:33:06;;;;;;;2.05;0.40;;;20.20;45.80;;;;;;5050615;28;20413;-86
2023/04/16 08:35:31;;;;;;;1.50;0.43;;;20.10;44.90;;;;;;5052095;28;20029;-87
2023/04/16 08:37:58;;;;;;;1.60;0.30;;;20.10;44.90;;;;;;5051589;28;20025;-86
2023/04/16 08:40:27;;;;;;;3.83;0.40;;;20.20;44.00;;;;;;5051280;28;20049;-86
2023/04/16 08:42:55;;;;;;;1.70;0.40;;;20.20;44.60;;;;;;5051448;28;20048;-85
2023/04/16 08:45:21;;;;;;;2.03;0.70;;;20.40;43.60;;;;;;5051133;28;20032;-85
2023/04/16 08:47:49;;;;;;;1.75;0.30;;;20.30;44.50;;;;;;5050473;28;20033;-85
2023/04/16 08:50:16;;;;;;;1.33;0.40;;;20.50;44.90;;;;;;5050065;28;20045;-86
2023/04/16 08:53:02;;;;;;;1.75;0.40;;;20.50;43.70;;;;;;5049431;28;20045;-86
2023/04/16 08:55:38;;;;;;;0.80;0.40;;;20.60;43.30;;;;;;5050953;28;20041;-87
2023/04/16 08:58:22;;;;;;;0.87;0.40;;;20.40;42.80;;;;;;5052474;28;20028;-84
2023/04/16 09:00:48;;;;;;;1.25;0.40;;;20.30;44.80;;;;;;5051058;28;20677;-87
2023/04/16 09:03:14;;;;;;;1.08;0.40;;;20.40;43.80;;;;;;5051192;28;20563;-86
2023/04/16 09:05:41;;;;;;;4.38;1.05;;;20.30;44.60;;;;;;5049517;28;20051;-87
2023/04/16 09:08:07;;;;;;;1.33;0.40;;;20.10;44.30;;;;;;5050547;28;20486;-87
2023/04/16 09:10:33;;;;;;;0.43;0.30;;;20.10;45.50;;;;;;5051814;28;20021;-86
2023/04/16 09:12:59;;;;;;;0.80;0.40;;;20.20;45.70;;;;;;5050906;28;20124;-87
2023/04/16 09:15:25;;;;;;;2.72;1.50;;;20.30;44.20;;;;;;5049378;28;20116;-87
2023/04/16 09:17:51;;;;;;;0.63;0.30;;;20.30;43.90;;;;;;5049532;28;20051;-87
2023/04/16 09:20:18;;;;;;;1.23;0.30;;;20.00;44.20;;;;;;5051492;28;20029;-87
2023/04/16 09:22:45;;;;;;;1.85;0.40;;;20.00;44.90;;;;;;5051598;28;20020;-87
2023/04/16 09:25:11;;;;;;;2.33;0.70;;;19.90;45.60;;;;;;5052562;28;20482;-87
2023/04/16 09:27:38;;;;;;;1.45;0.30;;;19.80;44.60;;;;;;5052351;28;20115;-86
2023/04/16 09:30:23;;;;;;;0.70;0.30;;;19.50;45.20;;;;;;5051941;28;20033;-85
2023/04/16 09:32:50;;;;;;;0.93;0.45;;;19.10;45.40;;;;;;5051224;28;20048;-86
2023/04/16 09:35:18;;;;;;;1.83;0.40;;;18.90;46.90;;;;;;5051545;28;20031;-86
2023/04/16 09:37:53;;;;;;;1.33;0.45;;;19.10;47.50;;;;;;5051138;28;20056;-86
2023/04/16 09:40:23;;;;;;;0.70;0.50;;;19.60;46.50;;;;;;5051336;28;20104;-86
2023/04/16 09:42:51;;;;;;;1.20;0.30;;;19.70;45.60;;;;;;5051213;28;20116;-86
2023/04/16 09:45:17;;;;;;;0.75;0.30;;;19.70;45.10;;;;;;5053696;28;20132;-87
2023/04/16 09:47:44;;;;;;;1.33;0.40;;;19.70;44.60;;;;;;5054991;28;20525;-86
2023/04/16 09:50:15;;;;;;;2.10;0.43;;;19.80;42.40;;;;;;5054986;28;20048;-86
2023/04/16 09:52:44;;;;;;;1.17;0.30;;;19.80;43.60;;;;;;5055068;28;20080;-85
2023/04/16 09:55:09;;;;;;;1.35;0.40;;;20.00;43.80;;;;;;5055222;28;20427;-86
2023/04/16 09:57:37;;;;;;;2.25;0.38;;;20.20;42.70;;;;;;5054578;28;20112;-85
2023/04/16 10:00:06;;;;;;;1.63;0.50;;;20.00;43.30;;;;;;5054832;28;20017;-86
2023/04/16 10:02:33;;;;;;;1.25;0.40;;;19.90;44.70;;;;;;5053765;28;20025;-86
2023/04/16 10:05:01;;;;;;;1.45;0.30;;;20.00;44.00;;;;;;5054575;28;20035;-86
2023/04/16 10:07:28;;;;;;;1.55;0.40;;;19.90;44.70;;;;;;5055102;28;20029;-86
2023/04/16 10:09:54;;;;;;;1.83;0.40;;;19.90;45.50;;;;;;5054815;28;20056;-85
2023/04/16 10:12:21;;;;;;;2.83;0.50;;;19.80;45.90;;;;;;5054471;28;20661;-86
2023/04/16 10:14:46;;;;;;;1.08;0.40;;;19.80;45.30;;;;;;5053676;28;20025;-86
2023/04/16 10:17:12;;;;;;;2.30;0.80;;;19.70;45.20;;;;;;5053026;28;20047;-86
2023/04/16 10:19:39;;;;;;;1.70;0.50;;;19.80;46.80;;;;;;5054178;28;20024;-86
2023/04/16 10:22:05;;;;;;;2.03;0.60;;;19.80;46.70;;;;;;5054949;28;20025;-86
2023/04/16 10:24:33;;;;;;;0.95;0.30;;;20.00;48.30;;;;;;5054386;28;20075;-86
2023/04/16 10:26:59;;;;;;;1.60;0.30;;;19.80;44.50;;;;;;5054463;28;20044;-86
2023/04/16 10:29:27;;;;;;;3.72;0.45;;;19.60;47.00;;;;;;5055599;28;20101;-86
2023/04/16 10:31:55;;;;;;;2.08;0.55;;;19.40;47.30;;;;;;5053773;28;20128;-84
2023/04/16 10:34:22;;;;;;;1.75;0.50;;;19.20;48.40;;;;;;5053319;28;20025;-86
2023/04/16 10:36:51;;;;;;;1.92;0.50;;;19.00;48.60;;;;;;5052719;28;20044;-84
2023/04/16 10:39:19;;;;;;;2.55;0.55;;;18.80;49.90;;;;;;5056046;28;20021;-86
2023/04/16 10:41:45;;;;;;;1.70;0.50;;;18.90;50.20;;;;;;5053992;28;20035;-84
2023/04/16 10:44:11;;;;;;;0.90;0.40;;;18.70;50.90;;;;;;5054027;28;20017;-85
2023/04/16 10:46:41;;;;;;;1.13;0.40;;;18.80;51.10;;;;;;5054075;28;20040;-85
2023/04/16 10:49:12;;;;;;;1.02;0.50;;;19.00;50.90;;;;;;5054261;28;20025;-86
2023/04/16 10:51:38;;;;;;;2.45;0.60;;;19.10;52.30;;;;;;5053789;28;20149;-86
2023/04/16 10:54:19;;;;;;;1.90;0.50;;;19.10;52.70;;;;;;5054007;28;20473;-85
2023/04/16 10:56:46;;;;;;;1.77;0.50;;;19.30;52.70;;;;;;5053149;28;20025;-86
2023/04/16 10:59:12;;;;;;;3.90;0.55;;;19.40;52.40;;;;;;5053708;28;20456;-86
2023/04/16 11:01:42;;;;;;;4.53;0.60;;;19.20;51.50;;;;;;5053487;28;20028;-84
2023/04/16 11:04:20;;;;;;;2.83;0.50;;;19.20;51.70;;;;;;5052596;28;20037;-85
2023/04/16 11:07:04;;;;;;;2.58;0.57;;;19.00;51.20;;;;;;5053170;28;20048;-86
2023/04/16 11:09:45;;;;;;;1.58;0.57;;;19.00;51.80;;;;;;5053691;28;20527;-86
2023/04/16 11:12:17;;;;;;;0.90;0.40;;;18.90;52.80;;;;;;5053550;28;20044;-86
2023/04/16 11:14:48;;;;;;;1.48;0.52;;;18.80;52.20;;;;;;5053584;28;20120;-86
2023/04/16 11:17:14;;;;;;;1.20;0.50;;;19.00;53.10;;;;;;5053811;28;20120;-86
2023/04/16 11:19:41;;;;;;;2.03;0.40;;;19.00;49.20;;;;;;5053376;28;20681;-84
2023/04/16 11:22:07;;;;;;;4.22;0.80;;;19.00;48.60;;;;;;5053440;28;20432;-86
2023/04/16 11:24:34;;;;;;;4.15;1.60;;;19.00;49.00;;;;;;5053124;28;20021;-87
2023/04/16 11:27:00;;;;;;;9.52;4.10;;;19.20;51.70;;;;;;5053243;28;20025;-86
2023/04/16 11:29:26;;;;;;;1.42;0.50;;;19.50;53.10;;;;;;5053596;28;20492;-86
2023/04/16 11:31:52;;;;;;;2.85;1.48;;;19.30;52.30;;;;;;5053283;28;20044;-86
2023/04/16 11:34:19;;;;;;;2.40;1.00;;;19.20;53.10;;;;;;5053182;28;20033;-86
2023/04/16 11:36:46;;;;;;;2.85;0.65;;;19.40;54.40;;;;;;5052929;28;20051;-86
2023/04/16 11:39:12;;;;;;;7.60;0.60;;;19.30;52.70;;;;;;5053238;28;20612;-86
2023/04/16 11:41:44;;;;;;;10.23;3.28;;;19.20;52.40;;;;;;5053203;28;20128;-87
2023/04/16 11:44:19;;;;;;;3.17;0.98;;;19.60;54.10;;;;;;5053123;28;20032;-86
2023/04/16 11:46:45;;;;;;;2.65;1.00;;;19.50;54.10;;;;;;5054250;28;20083;-87
2023/04/16 11:49:10;;;;;;;3.83;0.98;;;19.60;54.70;;;;;;5051050;28;20549;-84
2023/04/16 11:51:44;;;;;;;2.65;0.88;;;19.60;52.80;;;;;;5050083;28;20067;-85
2023/04/16 11:54:19;;;;;;;3.97;1.52;;;19.70;51.60;;;;;;5052813;28;20585;-86
2023/04/16 11:56:49;;;;;;;1.92;0.70;;;20.00;52.20;;;;;;5052051;28;20017;-86
2023/04/16 11:59:22;;;;;;;2.63;0.50;;;19.90;52.80;;;;;;5052734;28;20029;-86
2023/04/16 12:01:50;;;;;;;3.25;1.35;;;19.80;52.00;;;;;;5052534;28;20055;-86
2023/04/16 12:04:19;;;;;;;6.93;3.65;;;19.70;50.80;;;;;;5052432;28;20025;-86
2023/04/16 12:07:04;;;;;;;2.65;0.80;;;19.80;52.20;;;;;;5053777;28;20021;-85
2023/04/16 12:09:30;;;;;;;3.05;0.63;;;19.70;51.50;;;;;;5052123;28;20029;-86
2023/04/16 12:11:55;;;;;;;1.10;0.40;;;19.60;52.20;;;;;;5052681;28;20029;-87
2023/04/16 12:14:22;;;;;;;3.97;0.40;;;19.60;51.90;;;;;;5052501;28;20025;-86
2023/04/16 12:16:48;;;;;;;2.03;0.70;;;19.60;52.10;;;;;;5053475;28;20021;-85
2023/04/16 12:19:14;;;;;;;4.88;2.03;;;19.90;50.80;;;;;;5051275;28;20041;-85
2023/04/16 12:21:42;;;;;;;5.63;0.75;;;19.80;51.10;;;;;;5051439;28;20021;-85
2023/04/16 12:24:12;;;;;;;15.32;5.80;;;19.80;50.20;;;;;;5050944;28;20154;-85
2023/04/16 12:26:39;;;;;;;3.35;1.55;;;19.80;49.80;;;;;;5052473;28;20044;-87
2023/04/16 12:29:18;;;;;;;13.57;6.57;;;19.70;48.60;;;;;;5051780;28;20029;-87
2023/04/16 12:31:45;;;;;;;6.78;0.70;;;19.70;48.30;;;;;;5049320;28;20060;-87
2023/04/16 12:34:11;;;;;;;1.55;0.50;;;19.60;48.60;;;;;;5050642;28;20013;-88
2023/04/16 12:36:37;;;;;;;1.40;0.45;;;19.40;47.20;;;;;;5051469;28;20033;-88
2023/04/16 12:39:03;;;;;;;0.75;0.40;;;19.40;47.00;;;;;;5051906;28;20031;-87
2023/04/16 12:41:29;;;;;;;1.75;0.60;;;19.50;47.70;;;;;;5052239;28;20074;-86
2023/04/16 12:44:03;;;;;;;3.55;1.05;;;19.50;46.20;;;;;;5051311;28;20029;-86
2023/04/16 12:46:29;;;;;;;1.27;0.43;;;19.30;46.30;;;;;;5051271;28;20025;-86
2023/04/16 12:48:56;;;;;;;2.97;0.70;;;19.40;47.30;;;;;;5052118;28;20034;-86
2023/04/16 12:51:22;;;;;;;2.05;0.47;;;19.50;48.00;;;;;;5050705;28;20048;-87
2023/04/16 12:53:48;;;;;;;0.93;0.35;;;19.60;46.70;;;;;;5051943;28;20143;-88
2023/04/16 12:56:15;;;;;;;4.30;0.60;;;19.50;45.70;;;;;;5051154;28;20493;-87
2023/04/16 12:58:41;;;;;;;0.80;0.50;;;19.50;45.90;;;;;;5051251;28;20029;-87
2023/04/16 13:01:06;;;;;;;0.93;0.38;;;19.50;45.80;;;;;;5050523;28;20047;-87